Time;durP1;ratioP1;P1;durP2;ratioP2;P2;SDS_P1;SDS_P2;PMS_P1;PMS_P2;Temp;Humidity;BMP_temperature;BMP_pressure;BME280_temperature;BME280_humidity;BME280_pressure;Samples;Min_cycle;Max_cycle;Signal;HPM_P1;HPM_P2
2022/12/17 13:06:44;;;;;;;39.60;17.70;;;;;;;-0.50;100.00;99716.06;5039421;28;20048;-76
2022/12/17 13:09:16;;;;;;;51.53;20.60;;;;;;;0.12;100.00;99706.22;5030000;28;20941;-77
2022/12/17 13:11:44;;;;;;;44.72;19.58;;;;;;;0.19;100.00;99716.28;5035342;28;20029;-77
2022/12/17 13:14:27;;;;;;;41.08;17.98;;;;;;;0.19;100.00;99707.47;5022312;28;20093;-75
2022/12/17 13:16:58;;;;;;;44.92;19.85;;;;;;;-0.01;100.00;99716.91;5033673;28;20025;-76
2022/12/17 13:19:32;;;;;;;47.90;19.67;;;;;;;-0.04;100.00;99711.84;5042415;28;20032;-76
2022/12/17 13:22:13;;;;;;;43.15;19.17;;;;;;;1.16;100.00;99708.03;5061467;28;20025;-75
2022/12/17 13:24:41;;;;;;;42.65;20.20;;;;;;;2.01;100.00;99694.88;5042248;28;20041;-76
2022/12/17 13:27:30;;;;;;;43.90;19.85;;;;;;;2.49;88.20;99715.81;5040320;28;20018;-82
2022/12/17 13:29:56;;;;;;;41.83;20.37;;;;;;;2.52;84.17;99696.00;5043215;28;20032;-80
2022/12/17 13:32:29;;;;;;;46.95;22.48;;;;;;;2.09;89.26;99688.91;5043326;28;20580;-79
2022/12/17 13:35:46;;;;;;;47.72;20.50;;;;;;;1.44;91.43;99702.19;5040125;28;20040;-79
2022/12/17 13:38:25;;;;;;;44.17;20.60;;;;;;;0.58;100.00;99700.09;5002347;28;20040;-78
2022/12/17 13:41:00;;;;;;;43.45;18.80;;;;;;;0.64;100.00;99692.47;5026447;28;20030;-80
2022/12/17 13:43:31;;;;;;;42.25;20.38;;;;;;;0.10;100.00;99701.00;5058951;28;20013;-79
2022/12/17 13:45:57;;;;;;;46.08;20.77;;;;;;;-0.06;100.00;99705.78;5036913;28;20100;-76
2022/12/17 13:48:26;;;;;;;43.67;20.13;;;;;;;-0.41;100.00;99717.19;5033582;28;20145;-77
2022/12/17 13:51:03;;;;;;;42.63;19.23;;;;;;;-0.58;100.00;99720.19;5031478;28;20083;-77
2022/12/17 13:53:32;;;;;;;46.33;19.60;;;;;;;-0.58;100.00;99678.50;5026619;28;20114;-77
2022/12/17 13:55:59;;;;;;;46.58;22.15;;;;;;;-0.77;100.00;99692.28;4996985;28;20400;-76
2022/12/17 13:58:30;;;;;;;41.58;19.65;;;;;;;-0.91;100.00;99672.03;5005475;28;20032;-77
2022/12/17 14:01:11;;;;;;;41.63;18.73;;;;;;;-1.32;100.00;99669.63;5015373;28;20040;-77
2022/12/17 14:03:37;;;;;;;42.63;20.25;;;;;;;-1.20;100.00;99716.56;5021285;28;20022;-76
2022/12/17 14:06:10;;;;;;;46.63;20.90;;;;;;;-1.53;100.00;99710.91;5017916;28;20601;-76
2022/12/17 14:08:35;;;;;;;41.72;19.08;;;;;;;-1.95;100.00;99705.72;5022348;28;20022;-76
2022/12/17 14:13:47;;;;;;;52.38;21.63;;;;;;;-2.45;100.00;99723.97;5022520;28;20398;-76
2022/12/17 14:16:15;;;;;;;48.80;21.63;;;;;;;-2.65;100.00;99721.72;5021460;28;20063;-76
2022/12/17 14:18:46;;;;;;;42.38;20.38;;;;;;;-2.65;100.00;99711.13;5019898;28;20033;-76
2022/12/17 14:21:12;;;;;;;46.60;19.10;;;;;;;-2.75;100.00;99733.84;5017102;28;20035;-77
2022/12/17 14:23:39;;;;;;;47.78;20.13;;;;;;;-2.91;100.00;99721.59;5019595;28;20113;-77
2022/12/17 14:26:05;;;;;;;46.13;19.25;;;;;;;-2.94;100.00;99716.47;5025784;28;20025;-77
2022/12/17 14:28:33;;;;;;;46.65;20.00;;;;;;;-2.98;100.00;99738.78;5025913;28;20025;-76
2022/12/17 14:31:13;;;;;;;39.85;14.23;;;;;;;-3.25;100.00;99743.13;5029846;28;20471;-78
2022/12/17 14:33:41;;;;;;;49.03;19.50;;;;;;;-3.28;100.00;99741.50;5032828;28;20096;-77
2022/12/17 14:36:16;;;;;;;55.75;20.55;;;;;;;-3.41;100.00;99744.03;5023523;28;20029;-77
2022/12/17 14:39:03;;;;;;;45.60;18.88;;;;;;;-3.49;100.00;99740.16;5007436;28;20080;-77
2022/12/17 14:44:23;;;;;;;49.42;19.60;;;;;;;-4.04;100.00;99734.50;5032035;28;20040;-78
2022/12/17 14:46:50;;;;;;;;;;;;;;;-3.99;100.00;99748.28;5017782;28;20021;-78
2022/12/17 14:49:19;;;;;;;49.35;18.98;;;;;;;-4.31;100.00;99734.28;5004640;28;19917;-78
2022/12/17 14:51:44;;;;;;;50.10;21.10;;;;;;;-4.48;100.00;99734.38;5024329;28;20061;-80
2022/12/17 14:54:12;;;;;;;52.05;20.20;;;;;;;-4.33;100.00;99757.28;5012130;28;20115;-78
2022/12/17 14:56:39;;;;;;;51.57;20.17;;;;;;;-4.46;100.00;99750.97;5016157;28;20021;-78
2022/12/17 14:59:04;;;;;;;49.63;19.08;;;;;;;-4.68;100.00;99727.56;5047422;28;20020;-78
2022/12/17 15:01:29;;;;;;;46.92;18.98;;;;;;;-4.87;100.00;99731.22;5011258;28;20026;-78
2022/12/17 15:03:55;;;;;;;51.45;18.55;;;;;;;-4.95;100.00;99732.53;5018502;28;20027;-78
2022/12/17 15:06:21;;;;;;;46.67;20.15;;;;;;;-5.02;100.00;99712.72;5007693;28;20065;-77
2022/12/17 15:08:49;;;;;;;49.47;19.48;;;;;;;-5.11;100.00;99745.69;5018106;28;20109;-78
2022/12/17 15:11:17;;;;;;;51.25;18.45;;;;;;;-5.53;100.00;99700.41;5017550;28;20037;-78
2022/12/17 15:13:43;;;;;;;49.85;19.80;;;;;;;-5.34;100.00;99763.59;5007030;28;20150;-78
2022/12/17 15:16:09;;;;;;;54.60;19.63;;;;;;;-5.62;100.00;99748.31;5032594;28;20091;-78
2022/12/17 15:18:35;;;;;;;45.88;18.40;;;;;;;-5.68;100.00;99759.19;5027958;28;20021;-78
2022/12/17 15:21:00;;;;;;;58.35;18.73;;;;;;;-6.01;100.00;99719.59;5020565;28;20386;-77
2022/12/17 15:23:26;;;;;;;54.22;19.48;;;;;;;-5.99;100.00;99739.66;5019956;28;20075;-77
2022/12/17 15:25:52;;;;;;;59.95;20.75;;;;;;;-5.93;100.00;99764.00;5019001;28;20038;-77
2022/12/17 15:28:19;;;;;;;60.38;21.77;;;;;;;-6.17;100.00;99738.78;5031974;28;20469;-76
2022/12/17 15:30:46;;;;;;;52.22;19.05;;;;;;;-6.06;100.00;99769.03;5011787;28;20091;-78
2022/12/17 15:33:12;;;;;;;56.60;20.65;;;;;;;-6.11;100.00;99773.66;5015259;28;20021;-77
2022/12/17 15:35:38;;;;;;;53.97;19.95;;;;;;;-6.27;100.00;99755.09;5020823;28;20028;-77
2022/12/17 15:38:05;;;;;;;60.40;20.83;;;;;;;-6.28;100.00;99774.47;5024671;28;20579;-78
2022/12/17 15:40:30;;;;;;;52.47;19.80;;;;;;;-6.60;100.00;99742.63;5022942;28;20025;-77
2022/12/17 15:43:11;;;;;;;65.97;23.38;;;;;;;-6.62;100.00;99755.00;5015605;28;20444;-78
2022/12/17 15:45:41;;;;;;;68.97;23.83;;;;;;;-6.49;100.00;99785.09;5021843;28;20372;-78
2022/12/17 15:48:07;;;;;;;68.45;24.23;;;;;;;-6.55;100.00;99785.38;5018600;28;20060;-78
2022/12/17 15:50:33;;;;;;;70.43;24.67;;;;;;;-6.62;100.00;99791.84;5033320;28;20036;-77
2022/12/17 15:52:58;;;;;;;80.82;28.63;;;;;;;-6.80;100.00;99772.50;5014295;28;20483;-77
2022/12/17 15:55:23;;;;;;;97.15;32.08;;;;;;;-6.80;100.00;99769.88;5027490;28;20116;-78
2022/12/17 15:57:48;;;;;;;90.07;31.25;;;;;;;-6.93;100.00;99755.56;5021661;28;20029;-77
2022/12/17 16:00:14;;;;;;;88.20;29.48;;;;;;;-6.78;100.00;99796.13;5018814;28;20021;-78
2022/12/17 16:02:40;;;;;;;82.95;29.02;;;;;;;-7.01;100.00;99763.81;5017762;28;20022;-78
2022/12/17 16:05:05;;;;;;;86.13;30.02;;;;;;;-6.98;100.00;99791.75;5020128;28;20029;-78
2022/12/17 16:07:31;;;;;;;84.95;30.00;;;;;;;-7.27;100.00;99768.44;5031195;28;20021;-78
2022/12/17 16:09:56;;;;;;;67.95;23.75;;;;;;;-7.10;100.00;99791.38;5016886;28;20025;-77
2022/12/17 16:12:21;;;;;;;53.83;20.00;;;;;;;-7.12;100.00;99782.69;5019968;28;20113;-79
2022/12/17 16:14:47;;;;;;;63.78;19.98;;;;;;;-6.96;100.00;99819.69;5009647;28;20025;-78
2022/12/17 16:17:12;;;;;;;58.03;19.55;;;;;;;-7.01;100.00;99816.41;5025668;28;20389;-78
2022/12/17 16:19:38;;;;;;;54.13;20.02;;;;;;;-7.52;100.00;99768.66;5022149;28;20025;-78
2022/12/17 16:22:03;;;;;;;53.88;19.63;;;;;;;-7.17;100.00;99826.75;5014429;28;20032;-77
2022/12/17 16:24:28;;;;;;;51.08;19.13;;;;;;;-7.40;100.00;99804.06;5012190;28;20028;-77
2022/12/17 16:26:54;;;;;;;55.65;20.40;;;;;;;-7.35;100.00;99836.28;5030495;28;20032;-77
2022/12/17 16:29:19;;;;;;;58.80;20.92;;;;;;;-7.53;100.00;99816.03;5034613;28;20026;-75
2022/12/17 16:31:45;;;;;;;58.35;20.38;;;;;;;-7.64;100.00;99813.00;5031756;28;20031;-76
2022/12/17 16:34:11;;;;;;;56.67;19.02;;;;;;;-7.54;100.00;99819.59;5020989;28;20501;-76
2022/12/17 16:36:37;;;;;;;55.22;19.00;;;;;;;-7.60;100.00;99801.41;5030565;28;20025;-75
2022/12/17 16:39:03;;;;;;;61.60;20.60;;;;;;;-7.53;100.00;99819.50;5036197;28;20860;-76
2022/12/17 16:41:29;;;;;;;53.78;20.20;;;;;;;-7.51;100.00;99814.19;5025239;28;20148;-76
2022/12/17 16:43:54;;;;;;;54.13;18.67;;;;;;;-7.50;100.00;99808.00;5017786;28;20755;-75
2022/12/17 16:46:34;;;;;;;60.53;21.02;;;;;;;-7.48;100.00;99824.56;5020738;28;20699;-76
2022/12/17 16:49:06;;;;;;;70.95;23.38;;;;;;;-7.71;100.00;99786.97;5026308;28;20394;-75
2022/12/17 16:51:31;;;;;;;72.65;26.52;;;;;;;-7.73;100.00;99807.22;5029569;28;20040;-74
2022/12/17 16:53:57;;;;;;;79.53;28.50;;;;;;;-7.62;100.00;99830.41;5031983;28;20021;-74
2022/12/17 16:56:26;;;;;;;74.53;26.63;;;;;;;-7.84;100.00;99804.16;5019208;28;20733;-74
2022/12/17 16:58:52;;;;;;;92.90;30.30;;;;;;;-7.76;100.00;99817.81;5026792;28;20029;-74
2022/12/17 17:01:23;;;;;;;84.90;29.33;;;;;;;-7.90;100.00;99814.06;5040493;28;20043;-74
2022/12/17 17:03:48;;;;;;;83.20;29.40;;;;;;;-8.06;100.00;99808.59;5032362;28;20029;-75
2022/12/17 17:06:15;;;;;;;80.75;28.33;;;;;;;-7.96;100.00;99820.44;5016610;28;20040;-74
2022/12/17 17:08:41;;;;;;;74.80;28.95;;;;;;;-8.06;100.00;99812.06;5035823;28;20033;-74
2022/12/17 17:11:21;;;;;;;65.35;26.10;;;;;;;-7.96;100.00;99830.94;5024477;28;20471;-75
2022/12/17 17:13:48;;;;;;;81.38;28.27;;;;;;;-8.00;100.00;99842.47;5034385;28;20473;-75
2022/12/17 17:16:14;;;;;;;85.38;29.92;;;;;;;-8.09;100.00;99833.19;5016799;28;20108;-74
2022/12/17 17:18:39;;;;;;;78.93;29.38;;;;;;;-7.98;100.00;99838.84;5020313;28;20112;-74
2022/12/17 17:21:12;;;;;;;94.82;34.10;;;;;;;-7.98;100.00;99838.00;5029160;28;20025;-73
2022/12/17 17:23:37;;;;;;;88.50;32.85;;;;;;;-8.18;100.00;99820.41;5029934;28;20045;-74
2022/12/17 17:26:03;;;;;;;55.92;21.60;;;;;;;-8.24;100.00;99821.50;5031773;28;20038;-75
2022/12/17 17:28:28;;;;;;;69.43;25.88;;;;;;;-8.24;100.00;99841.66;5038839;28;20022;-75
2022/12/17 17:31:04;;;;;;;71.53;24.75;;;;;;;-8.38;100.00;99832.56;5026612;28;20001;-76
2022/12/17 17:33:34;;;;;;;68.82;25.85;;;;;;;-8.25;100.00;99846.06;5033572;28;20029;-75
2022/12/17 17:36:04;;;;;;;72.28;25.10;;;;;;;-8.33;100.00;99861.25;5038742;28;20405;-76
2022/12/17 17:38:31;;;;;;;53.97;20.52;;;;;;;-8.48;100.00;99836.47;5041228;28;20112;-76
2022/12/17 17:40:56;;;;;;;68.70;23.13;;;;;;;-8.48;100.00;99841.72;5021848;28;20040;-76
2022/12/17 17:43:22;;;;;;;57.60;22.55;;;;;;;-8.43;100.00;99857.28;5017729;28;20033;-74
2022/12/17 17:45:47;;;;;;;64.95;20.05;;;;;;;-8.43;100.00;99857.28;5022431;28;20060;-75
2022/12/17 17:48:12;;;;;;;61.40;20.17;;;;;;;-8.57;100.00;99849.91;5012774;28;20768;-77
2022/12/17 17:50:38;;;;;;;94.00;28.70;;;;;;;-8.79;100.00;99841.16;5012275;28;20025;-74
2022/12/17 17:53:03;;;;;;;85.05;25.80;;;;;;;-8.96;100.00;99823.41;5035620;28;20520;-75
2022/12/17 17:55:29;;;;;;;66.18;22.48;;;;;;;-8.67;100.00;99875.66;5022364;28;20752;-76
2022/12/17 17:57:54;;;;;;;62.75;21.17;;;;;;;-8.74;100.00;99879.41;5015804;28;20021;-75
2022/12/17 18:00:19;;;;;;;53.08;20.50;;;;;;;-8.75;100.00;99877.72;5024153;28;20495;-75
2022/12/17 18:02:44;;;;;;;55.17;19.83;;;;;;;-9.14;100.00;99820.53;5015084;28;20045;-75
2022/12/17 18:05:10;;;;;;;67.40;20.92;;;;;;;-8.81;100.00;99856.94;5016620;28;20830;-75
2022/12/17 18:07:35;;;;;;;58.60;19.92;;;;;;;-9.03;100.00;99821.94;5031523;28;20112;-75
2022/12/17 18:10:00;;;;;;;60.50;21.33;;;;;;;-8.87;100.00;99865.88;5012198;28;20153;-76
2022/12/17 18:15:10;;;;;;;62.45;23.33;;;;;;;-9.00;100.00;99866.38;5030790;28;20059;-76
2022/12/17 18:17:35;;;;;;;74.85;25.20;;;;;;;-8.93;100.00;99862.59;5011909;28;20112;-76
2022/12/17 18:20:01;;;;;;;80.15;26.48;;;;;;;-8.74;100.00;99884.66;5027121;28;20111;-75
2022/12/17 18:22:27;;;;;;;85.32;28.15;;;;;;;-8.91;100.00;99864.28;5019427;28;20021;-75
2022/12/17 18:24:53;;;;;;;78.90;26.92;;;;;;;-8.83;100.00;99877.09;5034179;28;20486;-76
2022/12/17 18:27:18;;;;;;;81.53;28.27;;;;;;;-8.82;100.00;99878.84;5030390;28;20087;-76
2022/12/17 18:29:43;;;;;;;88.30;28.95;;;;;;;-8.88;100.00;99858.06;5022039;28;21344;-76
2022/12/17 18:32:09;;;;;;;87.30;28.73;;;;;;;-8.91;100.00;99860.78;5022352;28;20033;-76
2022/12/17 18:34:34;;;;;;;82.57;27.95;;;;;;;-8.84;100.00;99867.53;5008381;28;20022;-75
2022/12/17 18:37:00;;;;;;;83.35;29.27;;;;;;;-8.89;100.00;99867.69;5020192;28;20021;-76
2022/12/17 18:39:25;;;;;;;79.03;28.13;;;;;;;-8.92;100.00;99875.69;5024577;28;20021;-77
2022/12/17 18:44:41;;;;;;;86.30;27.90;;;;;;;-8.87;100.00;99889.47;5029050;28;20070;-76
2022/12/17 18:47:07;;;;;;;79.88;28.58;;;;;;;-8.87;100.00;99883.38;5013263;28;20033;-75
2022/12/17 18:49:33;;;;;;;91.50;31.58;;;;;;;-8.92;100.00;99886.16;5022879;28;20029;-76
2022/12/17 18:51:58;;;;;;;72.13;28.00;;;;;;;-9.11;100.00;99862.38;5032035;28;20030;-76
2022/12/17 18:54:27;;;;;;;83.72;30.58;;;;;;;-8.97;100.00;99887.25;5031460;28;20040;-76
2022/12/17 18:56:56;;;;;;;92.00;30.42;;;;;;;-8.94;100.00;99887.13;5061093;28;20006;-75
2022/12/17 18:59:23;;;;;;;87.18;30.02;;;;;;;-8.94;100.00;99884.50;5040991;28;20025;-76
2022/12/17 19:01:49;;;;;;;76.28;29.13;;;;;;;-9.18;100.00;99868.72;5031930;28;20029;-76
2022/12/17 19:04:17;;;;;;;77.47;29.10;;;;;;;-8.98;100.00;99890.78;5042487;28;20032;-75
2022/12/17 19:06:43;;;;;;;60.85;21.30;;;;;;;-9.34;100.00;99851.84;5042815;28;20058;-76
2022/12/17 19:09:17;;;;;;;80.60;26.45;;;;;;;-9.25;100.00;99888.19;5048274;28;20050;-75
2022/12/17 19:11:43;;;;;;;77.57;26.88;;;;;;;-9.39;100.00;99872.94;5040016;28;20029;-76
2022/12/17 19:14:08;;;;;;;79.28;27.55;;;;;;;-9.38;100.00;99889.50;5034036;28;20018;-76
2022/12/17 19:16:33;;;;;;;73.18;27.60;;;;;;;-9.68;100.00;99846.88;5051744;28;20059;-76
2022/12/17 19:19:01;;;;;;;68.07;27.05;;;;;;;-9.45;100.00;99901.13;5042600;28;20361;-76
2022/12/17 19:21:27;;;;;;;71.60;26.65;;;;;;;-9.76;100.00;99865.44;5038515;28;20056;-75
2022/12/17 19:23:58;;;;;;;81.30;28.02;;;;;;;-9.87;100.00;99873.66;5040190;28;20021;-76
2022/12/17 19:26:25;;;;;;;97.82;35.70;;;;;;;-9.64;100.00;99920.06;5028632;28;20037;-76
2022/12/17 19:28:53;;;;;;;85.97;31.02;;;;;;;-9.62;100.00;99926.09;5034692;28;20041;-76
2022/12/17 19:31:20;;;;;;;84.90;29.45;;;;;;;-9.75;100.00;99917.75;5012629;28;20028;-76
2022/12/17 19:33:46;;;;;;;71.72;25.60;;;;;;;-9.68;100.00;99926.28;5025696;28;20010;-76
2022/12/17 19:36:16;;;;;;;79.30;28.60;;;;;;;-9.57;100.00;99918.94;5050223;28;20037;-76
2022/12/17 19:38:41;;;;;;;75.80;26.80;;;;;;;-9.54;100.00;99937.16;5050636;28;20033;-76
2022/12/17 19:41:09;;;;;;;84.55;29.50;;;;;;;-9.52;100.00;99940.59;5000624;28;20426;-75
2022/12/17 19:43:35;;;;;;;69.90;22.53;;;;;;;-9.67;100.00;99929.75;5021283;28;20049;-76
2022/12/17 19:46:05;;;;;;;86.68;31.15;;;;;;;-9.59;100.00;99932.97;5052439;28;20302;-76
2022/12/17 19:48:32;;;;;;;85.25;31.02;;;;;;;-9.59;100.00;99932.97;5023084;28;20163;-76
2022/12/17 19:50:58;;;;;;;93.63;35.70;;;;;;;-9.58;100.00;99932.94;5029050;28;20033;-76
2022/12/17 19:53:26;;;;;;;108.80;35.92;;;;;;;-9.80;100.00;99910.94;5026011;28;20033;-76
2022/12/17 19:55:55;;;;;;;84.75;33.15;;;;;;;-9.80;100.00;99922.28;5033304;28;20031;-74
2022/12/17 19:58:22;;;;;;;91.13;32.85;;;;;;;-9.62;100.00;99936.56;5017118;28;20030;-76
2022/12/17 20:00:49;;;;;;;81.55;30.60;;;;;;;-9.86;100.00;99932.09;5011632;28;20025;-76
2022/12/17 20:03:14;;;;;;;82.03;30.02;;;;;;;-10.15;100.00;99920.75;5033903;28;20138;-76
2022/12/17 20:05:45;;;;;;;91.20;29.58;;;;;;;-10.28;100.00;99904.59;5033991;28;20386;-76
2022/12/17 20:08:10;;;;;;;78.90;28.63;;;;;;;-10.32;100.00;99875.94;5030497;28;20037;-76
2022/12/17 20:10:36;;;;;;;73.80;26.20;;;;;;;-9.90;100.00;99947.06;5014576;28;20032;-75
2022/12/17 20:13:01;;;;;;;85.55;28.40;;;;;;;-10.11;100.00;99892.72;5034221;28;20080;-76
2022/12/17 20:15:26;;;;;;;89.60;29.08;;;;;;;-9.95;100.00;99928.88;5032920;28;20021;-76
2022/12/17 20:17:51;;;;;;;73.22;26.33;;;;;;;-10.16;100.00;99887.66;5016508;28;20017;-75
2022/12/17 20:20:17;;;;;;;77.93;28.30;;;;;;;-10.18;100.00;99897.31;5032027;28;20102;-76
2022/12/17 20:22:42;;;;;;;70.47;25.33;;;;;;;-10.29;100.00;99896.81;5019313;28;20025;-76
2022/12/17 20:25:10;;;;;;;87.07;27.55;;;;;;;-10.29;100.00;99908.13;5044359;28;20029;-76
2022/12/17 20:27:36;;;;;;;69.70;25.63;;;;;;;-10.03;100.00;99940.44;5043498;28;20033;-76
2022/12/17 20:30:02;;;;;;;83.53;27.58;;;;;;;-10.02;100.00;99936.94;5010475;28;20025;-76
2022/12/17 20:32:27;;;;;;;82.93;29.55;;;;;;;-10.16;100.00;99924.28;5033940;28;20076;-76
2022/12/17 20:34:52;;;;;;;92.30;28.17;;;;;;;-10.08;100.00;99929.28;5030672;28;20031;-76
2022/12/17 20:37:18;;;;;;;100.05;35.35;;;;;;;-10.42;100.00;99891.06;5031281;28;20036;-75
2022/12/17 20:39:43;;;;;;;79.57;29.75;;;;;;;-10.14;100.00;99925.06;5000616;28;20030;-75
2022/12/17 20:42:09;;;;;;;74.28;26.15;;;;;;;-10.37;100.00;99897.88;5033331;28;20033;-76
2022/12/17 20:44:34;;;;;;;79.45;27.17;;;;;;;-10.20;100.00;99927.88;5025259;28;20479;-77
2022/12/17 20:47:00;;;;;;;95.03;29.77;;;;;;;-10.11;100.00;99945.06;5023210;28;20558;-76
2022/12/17 20:49:25;;;;;;;84.22;31.30;;;;;;;-10.54;100.00;99875.72;5022839;28;20029;-77
2022/12/17 20:51:50;;;;;;;89.28;31.40;;;;;;;-10.20;100.00;99943.59;5013875;28;20021;-77
2022/12/17 20:54:16;;;;;;;84.85;30.25;;;;;;;-10.21;100.00;99928.78;5033748;28;20025;-76
2022/12/17 20:56:42;;;;;;;83.50;28.25;;;;;;;-10.30;100.00;99916.00;5031625;28;20018;-76
2022/12/17 20:59:12;;;;;;;85.15;28.92;;;;;;;-10.22;100.00;99924.44;5021940;28;20445;-76
2022/12/17 21:01:37;;;;;;;76.63;29.63;;;;;;;-10.60;100.00;99890.69;5008404;28;20029;-77
2022/12/17 21:04:02;;;;;;;87.50;30.13;;;;;;;-10.33;100.00;99921.34;5018441;28;20026;-77
2022/12/17 21:06:36;;;;;;;77.38;28.85;;;;;;;-10.38;100.00;99919.69;5022162;28;20083;-76
2022/12/17 21:09:03;;;;;;;78.40;26.83;;;;;;;-10.49;100.00;99900.84;5010432;28;20522;-76
2022/12/17 21:11:30;;;;;;;64.82;25.58;;;;;;;-10.64;100.00;99880.38;5029040;28;20033;-76
2022/12/17 21:13:56;;;;;;;69.95;25.92;;;;;;;-10.47;100.00;99912.13;5032848;28;20029;-76
2022/12/17 21:16:24;;;;;;;82.03;30.83;;;;;;;-10.47;100.00;99919.97;5033004;28;20053;-76
2022/12/17 21:18:51;;;;;;;68.60;24.15;;;;;;;-10.74;100.00;99878.91;5009625;28;21129;-76
2022/12/17 21:21:20;;;;;;;74.57;30.75;;;;;;;-10.56;100.00;99920.22;5020532;28;20064;-76
2022/12/17 21:23:46;;;;;;;78.43;29.92;;;;;;;-10.32;100.00;99938.72;5032830;28;20025;-76
2022/12/17 21:26:13;;;;;;;84.38;30.23;;;;;;;-10.34;100.00;99933.56;5015175;28;20033;-76
2022/12/17 21:28:40;;;;;;;74.03;28.90;;;;;;;-10.48;100.00;99918.28;5014114;28;20032;-76
2022/12/17 21:31:14;;;;;;;99.00;31.92;;;;;;;-10.42;100.00;99930.31;5013280;28;20025;-76
2022/12/17 21:33:40;;;;;;;83.40;29.58;;;;;;;-10.57;100.00;99908.06;5013642;28;20022;-76
2022/12/17 21:36:05;;;;;;;86.63;33.03;;;;;;;-10.90;100.00;99850.59;5012840;28;20032;-76
2022/12/17 21:38:31;;;;;;;128.65;42.50;;;;;;;-10.50;100.00;99922.69;5015902;28;20545;-76
2022/12/17 21:41:07;;;;;;;126.00;40.28;;;;;;;-10.39;100.00;99936.31;5031108;28;20096;-76
2022/12/17 21:43:35;;;;;;;88.38;30.33;;;;;;;-10.74;100.00;99905.06;5032706;28;20036;-76
2022/12/17 21:46:00;;;;;;;69.88;26.52;;;;;;;-10.63;100.00;99924.78;5022997;28;20048;-76
2022/12/17 21:48:26;;;;;;;77.22;27.35;;;;;;;-10.62;100.00;99921.25;5013765;28;20030;-76
2022/12/17 21:50:51;;;;;;;66.82;25.50;;;;;;;-10.56;100.00;99950.75;5015374;28;20018;-76
2022/12/17 21:53:16;;;;;;;75.07;26.40;;;;;;;-10.95;100.00;99904.78;5030955;28;20025;-76
2022/12/17 21:55:42;;;;;;;63.83;25.60;;;;;;;-10.83;100.00;99917.47;5019741;28;20041;-76
2022/12/17 21:58:07;;;;;;;73.43;27.90;;;;;;;-10.61;100.00;99950.88;5013472;28;20044;-76
2022/12/17 22:00:33;;;;;;;82.20;28.05;;;;;;;-10.75;100.00;99932.97;5018800;28;20106;-76
2022/12/17 22:02:58;;;;;;;69.63;25.73;;;;;;;-10.64;100.00;99938.75;5029513;28;20036;-76
2022/12/17 22:05:24;;;;;;;70.75;24.63;;;;;;;-10.39;100.00;99969.47;5013479;28;20434;-76
2022/12/17 22:07:49;;;;;;;71.80;23.95;;;;;;;-10.50;100.00;99955.84;5015383;28;20033;-76
2022/12/17 22:10:14;;;;;;;74.38;23.63;;;;;;;-10.49;100.00;99958.38;5021480;28;20407;-76
2022/12/17 22:15:24;;;;;;;69.20;25.85;;;;;;;-10.62;100.00;99962.25;5030194;28;20615;-76
2022/12/17 22:17:49;;;;;;;89.45;29.65;;;;;;;-10.57;100.00;99976.06;5016585;28;20030;-76
2022/12/17 22:20:15;;;;;;;103.00;33.33;;;;;;;-10.61;100.00;99969.19;5022027;28;20028;-76
2022/12/17 22:22:41;;;;;;;92.18;33.72;;;;;;;-10.84;100.00;99941.06;5029660;28;20028;-76
2022/12/17 22:25:08;;;;;;;90.15;33.05;;;;;;;-11.02;100.00;99918.88;5030537;28;20026;-76
2022/12/17 22:27:33;;;;;;;90.55;33.05;;;;;;;-10.74;100.00;99954.72;5018622;28;20124;-76
2022/12/17 22:35:46;;;;;;;109.87;38.33;;;;;;;-10.65;100.00;99954.50;5025109;28;20113;-76
2022/12/17 22:38:12;;;;;;;86.72;30.27;;;;;;;-10.83;100.00;99943.63;5029455;28;20068;-76
2022/12/17 22:40:38;;;;;;;85.80;31.98;;;;;;;-10.74;100.00;99963.44;5026042;28;20025;-76
2022/12/17 22:45:48;;;;;;;90.22;32.20;;;;;;;-10.78;100.00;99964.41;5024207;28;20406;-75
2022/12/17 22:48:14;;;;;;;92.03;33.75;;;;;;;-10.98;100.00;99948.41;5021553;28;20041;-76
2022/12/17 22:50:41;;;;;;;81.55;31.75;;;;;;;-10.83;100.00;99964.53;5018186;28;20056;-76
2022/12/17 22:53:06;;;;;;;81.63;30.20;;;;;;;-11.06;100.00;99946.84;5022080;28;20029;-76
2022/12/17 22:55:33;;;;;;;89.13;30.80;;;;;;;-11.28;100.00;99904.75;5017085;28;20052;-76
2022/12/17 22:57:58;;;;;;;95.50;29.65;;;;;;;-11.27;100.00;99924.72;5029092;28;20040;-76
2022/12/17 23:00:32;;;;;;;84.68;30.35;;;;;;;-11.05;100.00;99955.56;5022312;28;20037;-76
2022/12/17 23:02:58;;;;;;;74.93;29.58;;;;;;;-11.15;100.00;99948.84;5031031;28;20037;-76
2022/12/17 23:05:25;;;;;;;84.57;29.30;;;;;;;-11.02;100.00;99967.69;5034470;28;20045;-76
2022/12/17 23:07:51;;;;;;;91.75;31.23;;;;;;;-11.15;100.00;99956.69;5010499;28;20079;-76
2022/12/17 23:10:17;;;;;;;93.00;30.77;;;;;;;-11.23;100.00;99954.25;5035332;28;20076;-76
2022/12/17 23:12:53;;;;;;;91.85;33.47;;;;;;;-11.39;100.00;99926.81;5070716;28;20022;-76
2022/12/17 23:15:32;;;;;;;101.55;34.05;;;;;;;-11.21;100.00;99965.53;5038409;28;20036;-76
2022/12/17 23:18:00;;;;;;;94.88;34.35;;;;;;;-11.52;100.00;99923.66;5048572;28;20026;-76
2022/12/17 23:20:29;;;;;;;82.88;29.63;;;;;;;-11.23;100.00;99967.31;5008400;28;20044;-76
2022/12/17 23:22:54;;;;;;;;;;;;;;;-11.24;100.00;99968.19;5021871;28;20021;-76
2022/12/17 23:25:20;;;;;;;81.87;27.53;;;;;;;-11.28;100.00;99975.28;5029885;28;20015;-76
2022/12/17 23:27:46;;;;;;;72.07;24.58;;;;;;;-11.36;100.00;99958.09;5029436;28;20033;-76
2022/12/17 23:30:13;;;;;;;75.10;27.63;;;;;;;-11.31;100.00;99941.41;5030038;28;20026;-76
2022/12/17 23:32:39;;;;;;;72.28;27.75;;;;;;;-11.23;100.00;99954.25;5010591;28;20051;-76
2022/12/17 23:35:05;;;;;;;80.53;25.80;;;;;;;-11.17;100.00;99977.63;5024131;28;20491;-76
2022/12/17 23:37:30;;;;;;;75.50;26.42;;;;;;;-11.33;100.00;99958.00;5026513;28;20025;-76
2022/12/17 23:39:56;;;;;;;75.40;27.83;;;;;;;-11.38;100.00;99946.81;5028947;28;20036;-76
2022/12/17 23:42:21;;;;;;;94.60;31.08;;;;;;;-11.74;100.00;99873.72;5030608;28;20053;-76
2022/12/17 23:44:47;;;;;;;73.88;25.88;;;;;;;-11.22;100.00;99962.94;5028941;28;20043;-76
2022/12/17 23:47:12;;;;;;;77.10;25.58;;;;;;;-11.67;100.00;99910.97;5013752;28;20042;-76
2022/12/17 23:49:37;;;;;;;76.77;26.50;;;;;;;-11.46;100.00;99952.22;5024571;28;20033;-76
2022/12/17 23:52:03;;;;;;;74.40;27.27;;;;;;;-11.50;100.00;99946.22;5023033;28;20036;-76
2022/12/17 23:54:28;;;;;;;82.10;25.63;;;;;;;-11.73;100.00;99923.28;5032988;28;20017;-77
2022/12/17 23:56:53;;;;;;;61.63;22.52;;;;;;;-11.33;100.00;99974.53;5008869;28;20033;-76
2022/12/17 23:59:19;;;;;;;68.68;23.75;;;;;;;-11.51;100.00;99954.06;5020159;28;20094;-76
